createdAt,value
2022-10-11T00:02:03.991Z,7.25
2022-10-11T00:04:50.150Z,8.45
2022-10-11T00:07:37.224Z,7.82
2022-10-11T00:10:22.781Z,7.95
2022-10-11T00:13:08.041Z,8.25
2022-10-11T00:15:53.471Z,7.82
2022-10-11T00:18:39.254Z,8.05
2022-10-11T00:21:24.636Z,8.23
2022-10-11T00:24:10.385Z,8.15
2022-10-11T00:26:55.218Z,7.25
2022-10-11T00:29:40.180Z,8.30
2022-10-11T00:32:25.537Z,8.15
2022-10-11T00:35:10.483Z,8.05
2022-10-11T00:37:55.783Z,7.82
2022-10-11T00:40:40.893Z,7.82
2022-10-11T00:43:28.406Z,7.78
2022-10-11T00:46:13.253Z,7.38
2022-10-11T00:49:06.835Z,8.32
2022-10-11T00:52:01.184Z,7.75
2022-10-11T00:54:48.420Z,7.45
2022-10-11T00:57:36.455Z,8.23
2022-10-11T01:00:21.412Z,7.68
2022-10-11T01:03:06.629Z,8.32
2022-10-11T01:05:51.829Z,8.00
2022-10-11T01:08:37.523Z,8.00
2022-10-11T01:11:25.380Z,8.27
2022-10-11T01:14:18.121Z,8.57
2022-10-11T01:17:12.228Z,8.43
2022-10-11T01:20:09.365Z,8.18
2022-10-11T01:23:31.898Z,7.78
2022-10-11T01:27:14.299Z,8.32
2022-10-11T01:30:17.706Z,8.52
2022-10-11T01:33:44.344Z,8.75
2022-10-11T01:36:37.641Z,8.35
2022-10-11T01:39:25.560Z,8.25
2022-10-11T01:42:12.738Z,8.63
2022-10-11T01:44:58.979Z,8.38
2022-10-11T01:47:45.328Z,9.40
2022-10-11T01:50:41.008Z,8.20
2022-10-11T01:53:58.928Z,8.60
2022-10-11T01:56:56.163Z,8.30
2022-10-11T01:59:53.607Z,7.90
2022-10-11T02:02:57.150Z,8.90
2022-10-11T02:05:48.300Z,8.70
2022-10-11T02:08:47.031Z,8.10
2022-10-11T02:11:34.344Z,8.35
2022-10-11T02:14:26.170Z,8.18
2022-10-11T02:17:16.042Z,8.25
2022-10-11T02:20:05.910Z,7.93
2022-10-11T02:22:56.141Z,9.32
2022-10-11T02:25:44.186Z,7.65
2022-10-11T02:28:34.863Z,7.65
2022-10-11T02:31:21.664Z,7.55
2022-10-11T02:34:12.665Z,8.35
2022-10-11T02:37:18.830Z,7.70
2022-10-11T02:40:34.660Z,8.48
2022-10-11T02:43:25.530Z,7.70
2022-10-11T02:46:11.548Z,7.03
2022-10-11T02:48:59.164Z,8.20
2022-10-11T02:51:44.308Z,8.00
2022-10-11T02:54:29.250Z,8.95
2022-10-11T02:57:14.217Z,8.63
2022-10-11T02:59:59.249Z,13.85
2022-10-11T03:02:44.259Z,18.70
2022-10-11T03:05:29.657Z,14.98
2022-10-11T03:10:59.804Z,14.68
2022-10-11T03:13:44.616Z,14.55
2022-10-11T03:16:29.605Z,11.77
2022-10-11T03:19:18.399Z,10.50
2022-10-11T03:22:04.670Z,9.75
2022-10-11T03:24:49.862Z,9.57
2022-10-11T03:27:35.099Z,12.02
2022-10-11T03:30:19.793Z,15.75
2022-10-11T03:33:04.807Z,20.80
2022-10-11T03:35:50.031Z,25.05
2022-10-11T03:38:34.765Z,20.70
2022-10-11T03:44:04.955Z,11.73
2022-10-11T03:46:49.632Z,9.70
2022-10-11T03:49:34.733Z,10.18
2022-10-11T03:52:19.720Z,9.70
2022-10-11T03:55:05.929Z,9.93
2022-10-11T03:57:50.758Z,8.88
2022-10-11T04:00:36.161Z,9.45
2022-10-11T04:03:21.360Z,8.73
2022-10-11T04:08:51.673Z,7.80
2022-10-11T04:11:36.648Z,8.25
2022-10-11T04:14:21.495Z,8.27
2022-10-11T04:17:06.544Z,7.63
2022-10-11T04:19:51.475Z,7.70
2022-10-11T04:22:37.826Z,8.10
2022-10-11T04:25:22.910Z,6.53
2022-10-11T04:28:08.600Z,7.03
2022-10-11T04:30:53.737Z,6.60
2022-10-11T04:33:38.873Z,6.15
2022-10-11T04:36:24.012Z,6.65
2022-10-11T04:39:08.965Z,7.00
2022-10-11T04:41:53.998Z,6.90
2022-10-11T04:44:39.128Z,6.72
2022-10-11T04:47:24.055Z,6.57
2022-10-11T04:50:09.253Z,6.07
2022-10-11T04:52:53.976Z,6.35
2022-10-11T04:55:39.156Z,6.60
2022-10-11T04:58:24.020Z,6.30
2022-10-11T05:01:09.750Z,5.72
2022-10-11T05:03:54.468Z,5.60
2022-10-11T05:06:39.500Z,5.35
2022-10-11T05:09:24.464Z,5.70
2022-10-11T05:14:54.500Z,4.57
2022-10-11T05:17:39.444Z,4.78
2022-10-11T05:20:24.407Z,4.85
2022-10-11T05:23:09.490Z,4.10
2022-10-11T05:25:54.493Z,4.50
2022-10-11T05:28:39.533Z,4.55
2022-10-11T05:31:24.372Z,4.25
2022-10-11T05:34:09.367Z,4.20
2022-10-11T05:36:55.896Z,3.70
2022-10-11T05:39:40.516Z,3.72
2022-10-11T05:42:25.336Z,4.53
2022-10-11T05:45:10.478Z,4.05
2022-10-11T05:47:55.461Z,4.30
2022-10-11T05:50:40.845Z,4.07
2022-10-11T05:53:26.185Z,4.45
2022-10-11T05:56:19.642Z,5.15
2022-10-11T05:59:05.017Z,6.22
2022-10-11T06:01:49.782Z,5.72
2022-10-11T06:04:38.068Z,6.13
2022-10-11T06:07:23.153Z,5.68
2022-10-11T06:10:09.094Z,4.15
2022-10-11T06:12:53.887Z,4.13
2022-10-11T06:15:39.880Z,4.18
2022-10-11T06:18:24.670Z,3.70
2022-10-11T06:21:09.707Z,3.85
2022-10-11T06:24:00.904Z,3.95
2022-10-11T06:26:48.584Z,4.18
2022-10-11T06:29:34.104Z,4.03
2022-10-11T06:32:19.625Z,4.50
2022-10-11T06:35:05.546Z,4.40
2022-10-11T06:37:50.869Z,5.40
2022-10-11T06:40:36.068Z,5.35
2022-10-11T06:43:21.058Z,4.85
2022-10-11T06:46:06.474Z,5.20
2022-10-11T06:48:53.366Z,4.15
2022-10-11T06:51:38.222Z,4.68
2022-10-11T06:54:23.413Z,4.07
2022-10-11T06:57:08.440Z,4.85
2022-10-11T06:59:53.355Z,4.60
2022-10-11T07:02:38.210Z,5.32
2022-10-11T07:05:23.179Z,4.03
2022-10-11T07:08:08.120Z,4.30
2022-10-11T07:10:53.495Z,4.07
2022-10-11T07:13:39.562Z,3.85
2022-10-11T07:16:25.661Z,3.55
2022-10-11T07:19:10.722Z,3.83
2022-10-11T07:21:55.618Z,4.18
2022-10-11T07:24:40.464Z,3.83
2022-10-11T07:27:25.480Z,3.55
2022-10-11T07:30:10.787Z,3.92
2022-10-11T07:32:55.689Z,3.60
2022-10-11T07:35:42.852Z,3.50
2022-10-11T07:38:32.132Z,3.55
2022-10-11T07:41:18.087Z,3.50
2022-10-11T07:44:03.173Z,3.45
2022-10-11T07:46:48.139Z,3.90
2022-10-11T07:49:33.124Z,3.25
2022-10-11T07:52:18.162Z,3.45
2022-10-11T07:55:03.402Z,3.40
2022-10-11T07:57:48.116Z,2.53
2022-10-11T08:00:33.357Z,2.70
2022-10-11T08:03:18.115Z,2.42
2022-10-11T08:06:06.317Z,2.60
2022-10-11T08:08:51.389Z,2.80
2022-10-11T08:11:37.274Z,3.10
2022-10-11T08:14:22.701Z,3.17
2022-10-11T08:17:08.070Z,2.83
2022-10-11T08:19:52.981Z,2.95
2022-10-11T08:22:38.743Z,2.78
2022-10-11T08:25:23.409Z,2.40
2022-10-11T08:28:09.573Z,2.33
2022-10-11T08:30:54.772Z,2.20
2022-10-11T08:33:39.760Z,2.22
2022-10-11T08:36:25.291Z,2.17
2022-10-11T08:39:10.609Z,2.10
2022-10-11T08:42:02.923Z,2.50
2022-10-11T08:45:12.128Z,2.55
2022-10-11T08:48:08.057Z,2.00
2022-10-11T08:50:54.304Z,3.50
2022-10-11T08:53:53.832Z,2.17
2022-10-11T08:56:41.249Z,2.30
2022-10-11T08:59:39.007Z,1.60
2022-10-11T09:03:06.350Z,2.10
2022-10-11T09:05:58.021Z,2.65
2022-10-11T09:08:45.843Z,1.88
2022-10-11T09:11:34.069Z,2.00
2022-10-11T09:14:34.455Z,1.98
2022-10-11T09:17:50.266Z,2.50
2022-10-11T09:20:53.842Z,2.70
2022-10-11T09:23:57.313Z,2.28
2022-10-11T09:26:54.048Z,2.08
2022-10-11T09:30:13.943Z,2.15
2022-10-11T09:33:08.161Z,2.13
2022-10-11T09:35:56.406Z,2.08
2022-10-11T09:39:06.501Z,2.00
2022-10-11T09:42:18.913Z,2.13
2022-10-11T09:45:18.843Z,2.05
2022-10-11T09:48:06.915Z,2.00
2022-10-11T09:50:57.818Z,2.22
2022-10-11T09:53:53.808Z,2.33
2022-10-11T09:56:44.832Z,1.98
2022-10-11T09:59:34.664Z,2.10
2022-10-11T10:02:22.546Z,1.83
2022-10-11T10:05:10.209Z,1.73
2022-10-11T10:08:10.665Z,1.80
2022-10-11T10:10:59.250Z,1.77
2022-10-11T10:13:50.763Z,2.00
2022-10-11T10:16:36.756Z,2.22
2022-10-11T10:19:22.996Z,2.17
2022-10-11T10:22:19.127Z,2.20
2022-10-11T10:25:07.518Z,2.03
2022-10-11T10:28:04.352Z,1.90
2022-10-11T10:30:59.445Z,2.03
2022-10-11T10:33:49.677Z,2.00
2022-10-11T10:36:38.816Z,1.88
2022-10-11T10:39:48.179Z,1.83
2022-10-11T10:42:33.392Z,1.80
2022-10-11T10:45:25.205Z,2.50
2022-10-11T10:48:25.410Z,1.70
2022-10-11T10:51:16.412Z,2.20
2022-10-11T10:54:32.191Z,1.95
2022-10-11T10:57:28.001Z,1.77
2022-10-11T11:00:18.924Z,1.85
2022-10-11T11:03:28.792Z,1.70
2022-10-11T11:06:47.270Z,1.70
2022-10-11T11:09:38.064Z,1.60
2022-10-11T11:12:41.552Z,1.83
2022-10-11T11:15:58.645Z,1.77
2022-10-11T11:19:14.465Z,1.67
2022-10-11T11:22:15.711Z,1.60
2022-10-11T11:25:25.394Z,1.73
2022-10-11T11:28:30.917Z,1.30
2022-10-11T11:31:37.314Z,1.52
2022-10-11T11:34:50.501Z,1.25
2022-10-11T11:37:39.421Z,1.80
2022-10-11T11:40:34.921Z,1.73
2022-10-11T11:43:27.585Z,1.98
2022-10-11T11:46:17.065Z,1.80
2022-10-11T11:49:13.099Z,1.92
2022-10-11T11:51:59.313Z,1.77
2022-10-11T11:54:51.037Z,1.55
2022-10-11T11:58:07.547Z,1.40
2022-10-11T12:01:17.885Z,1.63
2022-10-11T12:04:21.700Z,1.50
2022-10-11T12:07:17.955Z,1.40
2022-10-11T12:10:28.117Z,1.70
2022-10-11T12:13:20.289Z,1.70
2022-10-11T12:16:10.394Z,1.60
2022-10-11T12:19:03.179Z,1.70
2022-10-11T12:22:20.032Z,1.85
2022-10-11T12:25:08.551Z,1.83
2022-10-11T12:27:56.293Z,2.13
2022-10-11T12:30:46.360Z,1.90
2022-10-11T12:33:32.030Z,1.70
2022-10-11T12:36:31.870Z,2.15
2022-10-11T12:39:19.598Z,2.00
2022-10-11T12:42:27.422Z,1.70
2022-10-11T12:45:12.671Z,1.70
2022-10-11T12:48:16.293Z,1.60
2022-10-11T12:51:44.025Z,1.85
2022-10-11T12:54:49.899Z,1.52
2022-10-11T12:58:06.997Z,2.13
2022-10-11T13:00:51.708Z,1.50
2022-10-11T13:03:41.007Z,1.80
2022-10-11T13:06:30.524Z,2.20
2022-10-11T13:09:29.298Z,1.85
2022-10-11T13:12:17.275Z,1.80
2022-10-11T13:15:06.496Z,1.77
2022-10-11T13:17:58.330Z,2.00
2022-10-11T13:20:44.204Z,1.98
2022-10-11T13:23:37.256Z,1.83
2022-10-11T13:26:22.339Z,1.80
2022-10-11T13:29:16.890Z,2.15
2022-10-11T13:32:07.149Z,2.13
2022-10-11T13:34:57.807Z,2.10
2022-10-11T13:37:47.869Z,2.35
2022-10-11T13:40:32.975Z,2.45
2022-10-11T13:43:24.889Z,2.20
2022-10-11T13:46:19.097Z,2.00
2022-10-11T13:49:23.992Z,2.10
2022-10-11T13:52:22.314Z,2.10
2022-10-11T13:55:12.992Z,2.40
2022-10-11T13:58:00.373Z,2.15
2022-10-11T14:01:01.552Z,2.25
2022-10-11T14:03:52.729Z,2.30
2022-10-11T14:06:44.636Z,2.33
2022-10-11T14:09:36.375Z,2.50
2022-10-11T14:12:42.632Z,2.15
2022-10-11T14:15:36.037Z,1.70
2022-10-11T14:18:42.348Z,2.00
2022-10-11T14:21:45.929Z,2.40
2022-10-11T14:24:30.535Z,2.40
2022-10-11T14:27:22.584Z,2.30
2022-10-11T14:30:30.432Z,2.60
2022-10-11T14:33:15.264Z,2.75
2022-10-11T14:36:00.279Z,3.17
2022-10-11T14:38:45.250Z,3.05
2022-10-11T14:41:30.392Z,3.45
2022-10-11T14:44:16.254Z,2.88
2022-10-11T14:47:05.938Z,3.15
2022-10-11T14:49:51.911Z,3.72
2022-10-11T14:52:36.692Z,4.20
2022-10-11T14:55:22.265Z,4.65
2022-10-11T14:58:09.075Z,5.05
2022-10-11T15:00:53.961Z,4.97
2022-10-11T15:03:39.513Z,6.05
2022-10-11T15:06:28.473Z,5.85
2022-10-11T15:09:13.608Z,5.55
2022-10-11T15:11:58.868Z,5.95
2022-10-11T15:14:43.897Z,7.65
2022-10-11T15:17:28.804Z,7.38
2022-10-11T15:20:38.573Z,8.13
2022-10-11T15:23:24.505Z,8.02
2022-10-11T15:26:13.958Z,8.95
2022-10-11T15:28:58.864Z,12.63
2022-10-11T15:31:45.319Z,20.15
2022-10-11T15:34:30.312Z,20.27
2022-10-11T15:37:15.116Z,21.08
2022-10-11T15:40:00.067Z,20.48
2022-10-11T15:42:45.948Z,23.52
2022-10-11T15:45:31.102Z,24.63
2022-10-11T15:48:21.289Z,30.98
2022-10-11T15:51:06.285Z,38.45
2022-10-11T15:53:50.963Z,42.22
2022-10-11T15:56:35.988Z,47.85
2022-10-11T15:59:20.941Z,53.42
2022-10-11T16:02:13.323Z,51.80
2022-10-11T16:04:58.120Z,45.47
2022-10-11T16:07:43.119Z,46.08
2022-10-11T16:10:28.005Z,45.00
2022-10-11T16:13:13.784Z,40.88
2022-10-11T16:16:01.672Z,38.28
2022-10-11T16:18:49.826Z,34.78
2022-10-11T16:21:34.601Z,29.90
2022-10-11T16:24:20.030Z,28.88
2022-10-11T16:27:05.084Z,25.98
2022-10-11T16:29:50.370Z,24.95
2022-10-11T16:32:35.504Z,26.15
2022-10-11T16:35:20.310Z,23.90
2022-10-11T16:38:05.321Z,21.35
2022-10-11T16:40:50.584Z,21.30
2022-10-11T16:43:35.165Z,22.15
2022-10-11T16:46:21.384Z,21.30
2022-10-11T16:49:06.205Z,22.13
2022-10-11T16:51:53.400Z,22.73
2022-10-11T16:54:38.923Z,21.85
2022-10-11T16:57:23.929Z,25.27
2022-10-11T17:00:09.402Z,12.60
2022-10-11T17:02:54.554Z,14.32
2022-10-11T17:05:39.273Z,13.55
2022-10-11T17:08:24.437Z,13.35
2022-10-11T17:11:09.549Z,14.00
2022-10-11T17:13:55.357Z,14.05
2022-10-11T17:16:40.570Z,14.30
2022-10-11T17:19:25.684Z,16.92
2022-10-11T17:22:12.071Z,15.52
2022-10-11T17:24:57.025Z,16.75
2022-10-11T17:27:42.111Z,16.27
2022-10-11T17:30:27.059Z,13.93
2022-10-11T17:33:12.126Z,13.85
2022-10-11T17:35:59.218Z,13.93
2022-10-11T17:38:44.315Z,14.02
2022-10-11T17:41:32.189Z,13.65
2022-10-11T17:44:18.068Z,14.55
2022-10-11T17:47:03.790Z,13.98
2022-10-11T17:49:49.003Z,13.48
2022-10-11T17:52:33.789Z,13.13
2022-10-11T17:55:18.617Z,12.90
2022-10-11T17:58:03.597Z,13.70
2022-10-11T18:00:48.553Z,13.80
2022-10-11T18:03:33.911Z,13.07
2022-10-11T18:06:19.000Z,13.80
2022-10-11T18:09:05.169Z,14.38
2022-10-11T18:11:51.299Z,14.43
2022-10-11T18:14:36.189Z,15.70
2022-10-11T18:17:20.968Z,16.02
2022-10-11T18:20:06.557Z,15.90
2022-10-11T18:22:54.816Z,14.88
2022-10-11T18:25:39.866Z,16.15
2022-10-11T18:28:25.179Z,16.30
2022-10-11T18:31:14.357Z,16.17
2022-10-11T18:33:59.692Z,16.15
2022-10-11T18:36:44.951Z,16.52
2022-10-11T18:39:30.007Z,15.60
2022-10-11T18:42:14.962Z,15.20
2022-10-11T18:44:59.992Z,13.98
2022-10-11T18:47:44.985Z,16.63
2022-10-11T18:50:34.281Z,14.25
2022-10-11T18:53:19.123Z,14.48
2022-10-11T18:56:07.119Z,15.52
2022-10-11T18:58:53.901Z,14.60
2022-10-11T19:01:41.248Z,14.77
2022-10-11T19:04:26.067Z,14.02
2022-10-11T19:07:10.922Z,13.85
2022-10-11T19:09:55.836Z,14.18
2022-10-11T19:12:40.860Z,13.80
2022-10-11T19:15:28.743Z,13.38
2022-10-11T19:18:18.293Z,14.15
2022-10-11T19:21:08.568Z,13.80
2022-10-11T19:23:55.189Z,14.02
2022-10-11T19:26:41.589Z,14.77
2022-10-11T19:29:28.187Z,14.70
2022-10-11T19:32:12.981Z,15.00
2022-10-11T19:34:57.996Z,15.93
2022-10-11T19:37:42.920Z,16.05
2022-10-11T19:40:30.245Z,15.57
2022-10-11T19:43:17.730Z,14.45
2022-10-11T19:46:04.742Z,15.20
2022-10-11T19:48:50.579Z,15.88
2022-10-11T19:51:36.786Z,13.68
2022-10-11T19:54:22.358Z,14.60
2022-10-11T19:57:08.910Z,14.27
2022-10-11T19:59:53.611Z,14.32
2022-10-11T20:02:38.816Z,14.05
2022-10-11T20:05:23.858Z,14.98
2022-10-11T20:08:08.767Z,14.27
2022-10-11T20:10:54.461Z,15.23
2022-10-11T20:13:39.330Z,14.80
2022-10-11T20:16:27.275Z,15.70
2022-10-11T20:19:12.132Z,16.42
2022-10-11T20:21:57.195Z,15.60
2022-10-11T20:24:42.164Z,16.25
2022-10-11T20:27:26.956Z,15.73
2022-10-11T20:30:14.080Z,16.67
2022-10-11T20:32:58.894Z,17.08
2022-10-11T20:35:43.930Z,16.85
2022-10-11T20:38:30.212Z,17.77
2022-10-11T20:41:21.173Z,18.95
2022-10-11T20:44:07.163Z,17.35
2022-10-11T20:46:52.263Z,17.13
2022-10-11T20:49:37.203Z,17.90
2022-10-11T20:52:22.171Z,18.10
2022-10-11T20:55:07.657Z,17.15
2022-10-11T20:57:52.203Z,16.50
2022-10-11T21:00:39.333Z,16.20
2022-10-11T21:03:24.233Z,16.58
2022-10-11T21:06:10.158Z,17.02
2022-10-11T21:08:55.865Z,16.17
2022-10-11T21:11:41.045Z,16.17
2022-10-11T21:14:26.041Z,16.20
2022-10-11T21:17:10.947Z,16.10
2022-10-11T21:19:58.061Z,16.52
2022-10-11T21:22:43.145Z,16.85
2022-10-11T21:25:27.979Z,16.15
2022-10-11T21:28:13.073Z,18.52
2022-10-11T21:31:09.547Z,15.93
2022-10-11T21:33:54.338Z,14.27
2022-10-11T21:36:39.259Z,16.00
2022-10-11T21:39:24.208Z,16.10
2022-10-11T21:42:09.135Z,15.20
2022-10-11T21:44:54.225Z,16.35
2022-10-11T21:47:39.947Z,17.13
2022-10-11T21:50:24.917Z,17.65
2022-10-11T21:53:09.977Z,18.05
2022-10-11T21:55:59.101Z,17.52
2022-10-11T21:58:47.900Z,16.88
2022-10-11T22:01:32.850Z,17.45
2022-10-11T22:04:17.749Z,17.40
2022-10-11T22:07:02.812Z,17.60
2022-10-11T22:09:47.774Z,16.00
2022-10-11T22:12:33.094Z,16.65
2022-10-11T22:15:18.183Z,15.85
2022-10-11T22:18:03.534Z,17.05
2022-10-11T22:20:48.499Z,15.82
2022-10-11T22:23:33.664Z,14.35
2022-10-11T22:26:26.595Z,14.48
2022-10-11T22:29:11.599Z,15.38
2022-10-11T22:31:56.657Z,14.65
2022-10-11T22:34:41.902Z,14.93
2022-10-11T22:37:26.412Z,16.38
2022-10-11T22:40:11.772Z,16.50
2022-10-11T22:42:56.421Z,15.70
2022-10-11T22:45:41.806Z,15.38
2022-10-11T22:48:27.107Z,14.75
2022-10-11T22:51:12.181Z,15.88
2022-10-11T22:53:57.173Z,15.27
2022-10-11T22:56:42.089Z,15.32
2022-10-11T22:59:27.185Z,15.40
2022-10-11T23:02:11.928Z,15.85
2022-10-11T23:04:57.714Z,15.57
2022-10-11T23:07:42.399Z,15.90
2022-10-11T23:10:27.422Z,15.60
2022-10-11T23:13:12.364Z,15.98
2022-10-11T23:15:57.279Z,15.70
2022-10-11T23:18:42.428Z,14.95
2022-10-11T23:21:27.229Z,15.93
2022-10-11T23:24:12.344Z,16.55
2022-10-11T23:26:57.189Z,16.92
2022-10-11T23:29:42.043Z,16.98
2022-10-11T23:32:26.946Z,17.02
2022-10-11T23:35:11.875Z,16.80
2022-10-11T23:37:57.031Z,16.42
2022-10-11T23:40:42.103Z,17.38
2022-10-11T23:43:27.031Z,16.50
2022-10-11T23:46:11.887Z,16.88
2022-10-11T23:48:56.885Z,16.05
2022-10-11T23:51:41.780Z,15.85
2022-10-11T23:54:26.930Z,15.68
2022-10-11T23:57:12.009Z,16.00
2022-10-11T23:59:56.663Z,16.42
